createdAt,value
2023-05-20T00:01:21.768Z,101630.48
2023-05-20T00:06:14.603Z,101629.04
2023-05-20T00:11:07.430Z,101630.02
2023-05-20T00:16:00.387Z,101627.88
2023-05-20T00:20:54.560Z,101621.61
2023-05-20T00:25:47.406Z,101614.75
2023-05-20T00:30:43.542Z,101610.45
2023-05-20T00:35:36.734Z,101607.41
2023-05-20T00:40:29.736Z,101607.14
2023-05-20T00:45:23.071Z,101608.95
2023-05-20T00:50:16.194Z,101613.81
2023-05-20T00:55:09.852Z,101610.99
2023-05-20T01:00:02.963Z,101610.98
2023-05-20T01:04:56.972Z,101608.34
2023-05-20T01:09:49.921Z,101608.65
2023-05-20T01:15:00.763Z,101606.33
2023-05-20T01:19:56.273Z,101608.05
2023-05-20T01:24:49.615Z,101610.10
2023-05-20T01:29:44.573Z,101613.52
2023-05-20T01:34:38.678Z,101615.27
2023-05-20T01:39:33.249Z,101612.83
2023-05-20T01:44:26.389Z,101611.96
2023-05-20T01:49:19.275Z,101612.33
2023-05-20T01:54:12.124Z,101608.83
2023-05-20T01:59:05.049Z,101606.55
2023-05-20T02:03:57.895Z,101599.92
2023-05-20T02:08:50.828Z,101598.17
2023-05-20T02:13:45.028Z,101599.71
2023-05-20T02:18:38.742Z,101594.35
2023-05-20T02:23:32.747Z,101597.36
2023-05-20T02:28:25.632Z,101601.18
2023-05-20T02:33:19.018Z,101600.50
2023-05-20T02:38:13.796Z,101605.36
2023-05-20T02:43:06.718Z,101605.52
2023-05-20T02:48:01.048Z,101601.17
2023-05-20T02:52:54.035Z,101602.27
2023-05-20T02:57:47.105Z,101605.96
2023-05-20T03:02:40.534Z,101606.39
2023-05-20T03:07:37.401Z,101610.29
2023-05-20T03:12:32.282Z,101612.95
2023-05-20T03:17:25.312Z,101613.18
2023-05-20T03:22:18.175Z,101610.12
2023-05-20T03:27:11.109Z,101613.66
2023-05-20T03:32:04.828Z,101617.42
2023-05-20T03:37:00.363Z,101617.15
2023-05-20T03:41:53.603Z,101623.52
2023-05-20T03:46:47.193Z,101616.64
2023-05-20T03:51:40.126Z,101613.09
2023-05-20T03:56:36.624Z,101613.36
2023-05-20T04:01:29.786Z,101614.70
2023-05-20T04:06:22.924Z,101616.78
2023-05-20T04:11:16.060Z,101618.66
2023-05-20T04:16:09.119Z,101616.69
2023-05-20T04:21:02.193Z,101612.81
2023-05-20T04:25:55.283Z,101617.46
2023-05-20T04:30:50.224Z,101610.31
2023-05-20T04:35:44.397Z,101613.84
2023-05-20T04:40:37.382Z,101615.39
2023-05-20T04:45:30.321Z,101612.81
2023-05-20T04:50:23.272Z,101608.52
2023-05-20T04:55:16.415Z,101605.03
2023-05-20T05:00:11.063Z,101605.20
2023-05-20T05:05:04.532Z,101609.39
2023-05-20T05:09:57.508Z,101613.41
2023-05-20T05:14:50.832Z,101619.20
2023-05-20T05:19:43.788Z,101621.22
2023-05-20T05:24:36.873Z,101619.05
2023-05-20T05:29:29.770Z,101613.96
2023-05-20T05:34:22.805Z,101608.67
2023-05-20T05:39:15.854Z,101618.20
2023-05-20T05:44:09.357Z,101616.34
2023-05-20T05:49:02.418Z,101621.41
2023-05-20T05:53:55.402Z,101618.91
2023-05-20T05:58:48.860Z,101620.00
2023-05-20T06:03:42.210Z,101616.36
2023-05-20T06:08:35.265Z,101609.61
2023-05-20T06:13:28.460Z,101613.77
2023-05-20T06:18:22.644Z,101611.41
2023-05-20T06:23:18.467Z,101611.49
2023-05-20T06:28:19.426Z,101610.86
2023-05-20T06:33:13.105Z,101603.65
2023-05-20T06:38:06.206Z,101603.97
2023-05-20T06:42:59.874Z,101603.27
2023-05-20T06:48:11.486Z,101591.59
2023-05-20T06:53:05.461Z,101584.45
2023-05-20T06:57:58.638Z,101582.04
2023-05-20T07:02:51.906Z,101580.66
2023-05-20T07:07:46.236Z,101579.23
2023-05-20T07:12:39.685Z,101572.56
2023-05-20T07:17:32.551Z,101562.91
2023-05-20T07:22:25.804Z,101561.52
2023-05-20T07:27:35.313Z,101558.92
2023-05-20T07:32:29.182Z,101556.24
2023-05-20T07:37:22.714Z,101549.80
2023-05-20T07:42:16.109Z,101541.80
2023-05-20T07:47:12.151Z,101541.23
2023-05-20T07:52:05.532Z,101536.52
2023-05-20T07:57:00.453Z,101535.89
2023-05-20T08:01:55.300Z,101533.58
2023-05-20T08:06:48.254Z,101533.05
2023-05-20T08:11:47.693Z,101531.25
2023-05-20T08:16:41.224Z,101534.93
2023-05-20T08:21:35.426Z,101534.88
2023-05-20T08:26:28.591Z,101533.46
2023-05-20T08:31:21.502Z,101532.27
2023-05-20T08:36:14.928Z,101533.64
2023-05-20T08:41:07.882Z,101533.08
2023-05-20T08:46:03.176Z,101527.62
2023-05-20T08:50:59.364Z,101533.80
2023-05-20T08:56:00.901Z,101528.96
2023-05-20T09:00:54.603Z,101527.13
2023-05-20T09:05:49.105Z,101529.74
2023-05-20T09:10:43.295Z,101521.38
2023-05-20T09:15:37.532Z,101519.44
2023-05-20T09:20:31.868Z,101517.79
2023-05-20T09:25:24.783Z,101514.73
2023-05-20T09:30:22.067Z,101517.18
2023-05-20T09:35:15.680Z,101507.56
2023-05-20T09:40:10.270Z,101507.93
2023-05-20T09:45:04.374Z,101513.65
2023-05-20T09:49:58.600Z,101506.55
2023-05-20T09:54:52.409Z,101505.10
2023-05-20T09:59:45.751Z,101501.45
2023-05-20T10:04:44.152Z,101503.67
2023-05-20T10:10:08.975Z,101501.73
2023-05-20T10:15:41.191Z,101501.25
2023-05-20T10:20:34.204Z,101492.71
2023-05-20T10:25:29.724Z,101494.86
2023-05-20T10:30:23.541Z,101500.25
2023-05-20T10:35:23.659Z,101494.13
2023-05-20T10:40:19.509Z,101488.02
2023-05-20T10:45:13.429Z,101480.78
2023-05-20T10:50:07.852Z,101470.74
2023-05-20T10:55:02.312Z,101466.65
2023-05-20T10:59:56.543Z,101466.29
2023-05-20T11:04:50.192Z,101464.98
2023-05-20T11:09:51.556Z,101461.26
2023-05-20T11:14:44.492Z,101453.02
2023-05-20T11:19:38.984Z,101445.64
2023-05-20T11:24:31.813Z,101441.80
2023-05-20T11:29:24.955Z,101429.97
2023-05-20T11:34:17.986Z,101427.23
2023-05-20T11:39:16.060Z,101434.60
2023-05-20T11:44:13.533Z,101432.17
2023-05-20T11:49:08.738Z,101433.95
2023-05-20T11:54:03.584Z,101433.41
2023-05-20T11:58:59.138Z,101434.05
2023-05-20T12:03:52.341Z,101429.00
2023-05-20T12:08:45.676Z,101431.61
2023-05-20T12:13:44.762Z,101434.70
2023-05-20T12:18:38.093Z,101431.71
2023-05-20T12:23:34.395Z,101428.75
2023-05-20T12:28:27.490Z,101430.84
2023-05-20T12:33:20.976Z,101428.84
2023-05-20T12:38:13.886Z,101428.48
2023-05-20T12:43:07.178Z,101423.23
2023-05-20T12:48:00.581Z,101423.59
2023-05-20T12:52:53.479Z,101419.26
2023-05-20T12:57:48.662Z,101415.52
2023-05-20T13:02:43.924Z,101410.64
2023-05-20T13:07:37.476Z,101409.44
2023-05-20T13:12:31.195Z,101401.83
2023-05-20T13:17:24.117Z,101390.09
2023-05-20T13:22:17.071Z,101387.39
2023-05-20T13:27:10.307Z,101385.71
2023-05-20T13:32:03.213Z,101381.71
2023-05-20T13:36:56.105Z,101381.86
2023-05-20T13:41:49.459Z,101381.17
2023-05-20T13:46:42.621Z,101374.92
2023-05-20T13:51:35.972Z,101377.98
2023-05-20T13:56:29.367Z,101370.21
2023-05-20T14:01:22.334Z,101363.23
2023-05-20T14:06:18.943Z,101363.73
2023-05-20T14:11:11.851Z,101359.02
2023-05-20T14:16:05.118Z,101350.73
2023-05-20T14:21:50.051Z,101343.50
2023-05-20T14:26:59.273Z,101348.30
2023-05-20T14:31:52.274Z,101345.29
2023-05-20T14:36:45.389Z,101344.91
2023-05-20T14:41:38.534Z,101341.39
2023-05-20T14:46:31.966Z,101342.77
2023-05-20T14:51:25.317Z,101339.77
2023-05-20T14:56:26.053Z,101338.65
2023-05-20T15:01:40.758Z,101336.05
2023-05-20T15:06:37.375Z,101330.93
2023-05-20T15:11:45.324Z,101325.70
2023-05-20T15:17:01.662Z,101329.11
2023-05-20T15:22:11.765Z,101320.58
2023-05-20T15:27:16.531Z,101317.19
2023-05-20T15:32:14.439Z,101313.09
2023-05-20T15:37:10.572Z,101302.70
2023-05-20T15:42:24.658Z,101308.88
2023-05-20T15:48:21.888Z,101310.26
2023-05-20T15:56:36.202Z,101311.83
2023-05-20T16:05:42.461Z,101311.61
2023-05-20T16:10:43.910Z,101310.30
2023-05-20T16:15:51.546Z,101308.95
2023-05-20T16:20:59.508Z,101307.76
2023-05-20T16:25:54.991Z,101308.55
2023-05-20T16:31:09.682Z,101308.53
2023-05-20T16:42:27.668Z,101314.96
2023-05-20T16:47:35.400Z,101317.30
2023-05-20T16:52:49.176Z,101322.21
2023-05-20T16:58:22.203Z,101329.86
2023-05-20T17:03:38.596Z,101326.92
2023-05-20T17:09:13.587Z,101327.39
2023-05-20T17:21:07.685Z,101336.78
2023-05-20T17:32:20.678Z,101339.77
2023-05-20T17:37:46.750Z,101340.09
2023-05-20T17:43:18.738Z,101344.80
2023-05-20T18:00:57.354Z,101358.10
2023-05-20T18:06:15.184Z,101356.77
2023-05-20T18:11:08.728Z,101351.06
2023-05-20T18:16:06.920Z,101358.63
2023-05-20T18:21:07.998Z,101355.23
2023-05-20T18:26:24.868Z,101362.73
2023-05-20T18:31:29.606Z,101368.35
2023-05-20T18:36:47.954Z,101371.13
2023-05-20T18:41:54.508Z,101372.04
2023-05-20T18:46:49.412Z,101378.42
2023-05-20T18:51:46.439Z,101380.05
2023-05-20T19:03:42.081Z,101372.31
2023-05-20T19:08:59.097Z,101380.50
2023-05-20T19:13:58.320Z,101379.70
2023-05-20T19:18:54.309Z,101374.14
2023-05-20T19:23:47.295Z,101377.36
2023-05-20T19:28:40.197Z,101376.20
2023-05-20T19:33:33.100Z,101371.64
2023-05-20T19:38:26.484Z,101371.15
2023-05-20T19:43:19.373Z,101362.05
2023-05-20T19:48:12.391Z,101364.17
2023-05-20T19:53:07.530Z,101363.30
2023-05-20T19:58:00.989Z,101366.61
2023-05-20T20:02:53.883Z,101372.18
2023-05-20T20:07:48.077Z,101370.39
2023-05-20T20:12:40.983Z,101369.85
2023-05-20T20:17:34.417Z,101371.75
2023-05-20T20:22:27.344Z,101374.52
2023-05-20T20:27:20.650Z,101376.05
2023-05-20T20:32:13.674Z,101380.04
2023-05-20T20:37:07.832Z,101384.91
2023-05-20T20:42:03.258Z,101383.11
2023-05-20T20:46:58.478Z,101382.35
2023-05-20T20:51:52.151Z,101379.33
2023-05-20T20:56:47.535Z,101378.90
2023-05-20T21:01:45.116Z,101377.79
2023-05-20T21:06:38.750Z,101371.45
2023-05-20T21:11:31.892Z,101370.52
2023-05-20T21:16:24.831Z,101367.30
2023-05-20T21:21:20.645Z,101362.89
2023-05-20T21:26:13.520Z,101361.61
2023-05-20T21:31:06.454Z,101360.03
2023-05-20T21:35:59.363Z,101359.98
2023-05-20T21:40:59.075Z,101369.05
2023-05-20T21:45:52.283Z,101367.62
2023-05-20T21:50:45.460Z,101364.08
2023-05-20T21:55:38.610Z,101369.80
2023-05-20T22:00:32.318Z,101369.38
2023-05-20T22:05:25.612Z,101369.46
2023-05-20T22:10:21.260Z,101370.44
2023-05-20T22:15:16.309Z,101368.61
2023-05-20T22:20:10.845Z,101370.80
2023-05-20T22:25:04.742Z,101375.92
2023-05-20T22:29:57.888Z,101374.42
2023-05-20T22:34:53.999Z,101372.24
2023-05-20T22:39:47.106Z,101371.27
2023-05-20T22:44:40.215Z,101362.61
2023-05-20T22:49:33.151Z,101362.20
2023-05-20T22:54:26.812Z,101361.61
2023-05-20T22:59:24.221Z,101357.48
2023-05-20T23:04:17.130Z,101363.34
2023-05-20T23:09:11.593Z,101362.52
2023-05-20T23:14:05.805Z,101359.66
2023-05-20T23:18:59.005Z,101359.56
2023-05-20T23:23:51.921Z,101357.54
2023-05-20T23:28:45.181Z,101358.98
2023-05-20T23:33:38.267Z,101359.43
2023-05-20T23:38:32.233Z,101357.70
2023-05-20T23:43:25.135Z,101358.70
2023-05-20T23:48:20.143Z,101353.59
2023-05-20T23:53:13.059Z,101351.51
2023-05-20T23:58:05.988Z,101348.36
